Time;durP1;ratioP1;P1;durP2;ratioP2;P2;SDS_P1;SDS_P2;PMS_P1;PMS_P2;Temp;Humidity;BMP_temperature;BMP_pressure;BME280_temperature;BME280_humidity;BME280_pressure;Samples;Min_cycle;Max_cycle;Signal;HPM_P1;HPM_P2
2022/09/02 00:01:32;;;;;;;2.10;1.90;;;;;;;;;;5059763;28;20028;-75
2022/09/02 00:04:00;;;;;;;3.13;1.95;;;;;;;;;;5059043;28;20458;-75
2022/09/02 00:06:27;;;;;;;3.50;1.80;;;;;;;;;;5059815;28;20449;-75
2022/09/02 00:08:53;;;;;;;4.32;1.90;;;;;;;;;;5061252;28;20052;-75
2022/09/02 00:11:22;;;;;;;3.92;1.50;;;;;;;;;;5060923;28;20036;-75
2022/09/02 00:13:48;;;;;;;3.50;1.90;;;;;;;;;;5058672;28;20147;-75
2022/09/02 00:16:14;;;;;;;2.67;2.00;;;;;;;;;;5052173;28;20465;-75
2022/09/02 00:18:40;;;;;;;4.68;2.10;;;;;;;;;;5052209;28;20024;-76
2022/09/02 00:21:06;;;;;;;3.88;2.30;;;;;;;;;;5052139;28;20037;-76
2022/09/02 00:23:32;;;;;;;3.50;2.08;;;;;;;;;;5050429;28;20021;-76
2022/09/02 00:25:58;;;;;;;3.08;2.00;;;;;;;;;;5051905;28;20017;-76
2022/09/02 00:28:23;;;;;;;4.60;1.90;;;;;;;;;;5051969;28;20020;-74
2022/09/02 00:30:48;;;;;;;3.00;1.88;;;;;;;;;;5051988;28;20025;-76
2022/09/02 00:33:14;;;;;;;3.38;2.00;;;;;;;;;;5051879;28;20112;-76
2022/09/02 00:35:40;;;;;;;4.53;2.10;;;;;;;;;;5051358;28;20055;-76
2022/09/02 00:38:05;;;;;;;2.30;1.80;;;;;;;;;;5050955;28;20067;-74
2022/09/02 00:40:31;;;;;;;3.75;1.95;;;;;;;;;;5051793;28;20043;-75
2022/09/02 00:42:57;;;;;;;3.03;1.80;;;;;;;;;;5051988;28;20068;-75
2022/09/02 00:45:22;;;;;;;7.82;2.00;;;;;;;;;;5051777;28;20056;-76
2022/09/02 00:47:50;;;;;;;6.57;2.20;;;;;;;;;;5050059;28;20056;-75
2022/09/02 00:50:21;;;;;;;4.82;1.98;;;;;;;;;;5051510;28;20021;-75
2022/09/02 00:52:52;;;;;;;4.00;1.95;;;;;;;;;;5051553;28;20047;-76
2022/09/02 00:55:21;;;;;;;4.57;2.20;;;;;;;;;;5051256;28;20082;-75
2022/09/02 00:57:58;;;;;;;4.07;1.80;;;;;;;;;;5051060;28;20029;-76
2022/09/02 01:00:26;;;;;;;5.32;1.83;;;;;;;;;;5050240;28;20086;-75
2022/09/02 01:02:55;;;;;;;2.83;1.85;;;;;;;;;;5051344;28;20108;-75
2022/09/02 01:05:22;;;;;;;5.30;2.30;;;;;;;;;;5051106;28;20501;-75
2022/09/02 01:07:50;;;;;;;3.72;1.90;;;;;;;;;;5051478;28;20025;-75
2022/09/02 01:10:20;;;;;;;4.75;2.10;;;;;;;;;;5049701;28;20116;-75
2022/09/02 01:12:46;;;;;;;5.30;2.00;;;;;;;;;;5050915;28;20410;-75
2022/09/02 01:15:13;;;;;;;2.95;2.00;;;;;;;;;;5049747;28;20083;-75
2022/09/02 01:17:44;;;;;;;3.28;1.80;;;;;;;;;;5049664;28;20037;-75
2022/09/02 01:20:14;;;;;;;3.10;1.73;;;;;;;;;;5050987;28;20036;-74
2022/09/02 01:22:41;;;;;;;2.40;1.90;;;;;;;;;;5050782;28;20025;-74
2022/09/02 01:25:12;;;;;;;5.00;2.10;;;;;;;;;;5050796;28;20028;-74
2022/09/02 01:27:37;;;;;;;7.90;2.10;;;;;;;;;;5049435;28;20021;-74
2022/09/02 01:30:06;;;;;;;3.78;2.10;;;;;;;;;;5051050;28;20035;-75
2022/09/02 01:32:31;;;;;;;2.35;1.80;;;;;;;;;;5050657;28;20037;-75
2022/09/02 01:34:58;;;;;;;4.32;1.70;;;;;;;;;;5048825;28;20029;-75
2022/09/02 01:37:24;;;;;;;4.30;2.03;;;;;;;;;;5050610;28;20043;-75
2022/09/02 01:39:51;;;;;;;4.18;1.88;;;;;;;;;;5050644;28;20021;-75
2022/09/02 01:42:17;;;;;;;2.38;2.00;;;;;;;;;;5049189;28;20024;-75
2022/09/02 01:44:43;;;;;;;5.15;2.22;;;;;;;;;;5050446;28;20039;-73
2022/09/02 01:47:28;;;;;;;6.95;2.22;;;;;;;;;;5049063;28;20025;-75
2022/09/02 01:49:54;;;;;;;3.55;2.40;;;;;;;;;;5050197;28;20056;-76
2022/09/02 01:52:21;;;;;;;4.57;2.10;;;;;;;;;;5050321;28;20029;-76
2022/09/02 01:54:47;;;;;;;3.28;2.10;;;;;;;;;;5050550;28;20032;-75
2022/09/02 01:57:13;;;;;;;6.30;2.42;;;;;;;;;;5048991;28;20462;-75
2022/09/02 01:59:39;;;;;;;7.40;2.30;;;;;;;;;;5049894;28;20086;-75
2022/09/02 02:02:05;;;;;;;2.97;2.28;;;;;;;;;;5050256;28;20029;-75
2022/09/02 02:04:31;;;;;;;7.85;2.15;;;;;;;;;;5050163;28;20043;-75
2022/09/02 02:06:56;;;;;;;4.78;1.80;;;;;;;;;;5049928;28;20497;-76
2022/09/02 02:09:21;;;;;;;2.57;1.83;;;;;;;;;;5050690;28;20032;-76
2022/09/02 02:11:48;;;;;;;3.20;1.75;;;;;;;;;;5049680;28;20264;-75
2022/09/02 02:14:14;;;;;;;3.97;2.08;;;;;;;;;;5049972;28;20104;-75
2022/09/02 02:16:40;;;;;;;3.45;2.17;;;;;;;;;;5049943;28;20112;-74
2022/09/02 02:19:05;;;;;;;2.90;2.20;;;;;;;;;;5049846;28;20112;-74
2022/09/02 02:21:31;;;;;;;2.70;2.05;;;;;;;;;;5049141;28;20040;-75
2022/09/02 02:24:00;;;;;;;6.00;2.28;;;;;;;;;;5050150;28;20382;-75
2022/09/02 02:26:25;;;;;;;5.63;2.20;;;;;;;;;;5048352;28;20036;-75
2022/09/02 02:28:51;;;;;;;2.58;2.20;;;;;;;;;;5049748;28;20169;-75
2022/09/02 02:31:16;;;;;;;4.33;1.93;;;;;;;;;;5048419;28;20046;-76
2022/09/02 02:33:41;;;;;;;5.13;2.20;;;;;;;;;;5049354;28;20257;-74
2022/09/02 02:36:08;;;;;;;4.03;2.10;;;;;;;;;;5048193;28;20278;-75
2022/09/02 02:38:35;;;;;;;5.03;1.90;;;;;;;;;;5049572;28;20025;-75
2022/09/02 02:41:01;;;;;;;4.60;1.90;;;;;;;;;;5048319;28;20119;-75
2022/09/02 02:43:27;;;;;;;5.00;2.03;;;;;;;;;;5049800;28;20490;-75
2022/09/02 02:45:53;;;;;;;4.03;1.77;;;;;;;;;;5049140;28;20056;-75
2022/09/02 02:48:19;;;;;;;6.40;2.38;;;;;;;;;;5050063;28;20254;-74
2022/09/02 02:50:44;;;;;;;3.13;2.17;;;;;;;;;;5051497;28;20389;-74
2022/09/02 02:53:11;;;;;;;3.25;1.90;;;;;;;;;;5051994;28;20071;-74
2022/09/02 02:55:36;;;;;;;3.25;2.10;;;;;;;;;;5053426;28;20032;-74
2022/09/02 02:58:02;;;;;;;3.00;2.25;;;;;;;;;;5052937;28;20024;-73
2022/09/02 03:00:29;;;;;;;4.18;2.20;;;;;;;;;;5052888;28;20028;-74
2022/09/02 03:03:00;;;;;;;4.95;2.17;;;;;;;;;;5051566;28;20028;-75
2022/09/02 03:05:26;;;;;;;3.30;2.10;;;;;;;;;;5052706;28;20067;-74
2022/09/02 03:07:52;;;;;;;3.45;1.85;;;;;;;;;;5052739;28;20064;-74
2022/09/02 03:10:18;;;;;;;2.40;1.90;;;;;;;;;;5053081;28;20025;-73
2022/09/02 03:12:46;;;;;;;3.90;2.00;;;;;;;;;;5051708;28;20025;-76
2022/09/02 03:15:14;;;;;;;3.10;2.10;;;;;;;;;;5052705;28;20035;-77
2022/09/02 03:17:40;;;;;;;4.68;2.03;;;;;;;;;;5051660;28;20032;-77
2022/09/02 03:20:06;;;;;;;3.88;2.00;;;;;;;;;;5053146;28;20025;-75
2022/09/02 03:22:31;;;;;;;4.55;2.20;;;;;;;;;;5052671;28;20029;-75
2022/09/02 03:24:57;;;;;;;1.97;1.77;;;;;;;;;;5052628;28;20028;-74
2022/09/02 03:27:22;;;;;;;3.58;2.10;;;;;;;;;;5053252;28;20254;-75
2022/09/02 03:29:47;;;;;;;3.45;1.95;;;;;;;;;;5051741;28;20035;-76
2022/09/02 03:32:12;;;;;;;2.58;2.03;;;;;;;;;;5051359;28;20021;-75
2022/09/02 03:34:38;;;;;;;4.83;2.00;;;;;;;;;;5055014;28;20116;-75
2022/09/02 03:37:03;;;;;;;2.57;2.07;;;;;;;;;;5056763;28;20298;-75
2022/09/02 03:39:28;;;;;;;3.13;2.05;;;;;;;;;;5056732;28;20266;-75
2022/09/02 03:41:53;;;;;;;3.85;1.95;;;;;;;;;;5057331;28;20021;-75
2022/09/02 03:44:19;;;;;;;2.87;1.90;;;;;;;;;;5056668;28;20075;-75
2022/09/02 03:46:45;;;;;;;5.43;2.00;;;;;;;;;;5055030;28;20262;-74
2022/09/02 03:49:10;;;;;;;8.40;2.08;;;;;;;;;;5055075;28;20475;-75
2022/09/02 03:51:40;;;;;;;3.63;2.10;;;;;;;;;;5056485;28;20362;-75
2022/09/02 03:54:06;;;;;;;6.68;2.40;;;;;;;;;;5054939;28;20485;-75
2022/09/02 03:56:32;;;;;;;2.85;2.05;;;;;;;;;;5056043;28;20032;-75
2022/09/02 03:58:58;;;;;;;2.80;2.10;;;;;;;;;;5056474;28;20025;-75
2022/09/02 04:01:24;;;;;;;3.25;2.05;;;;;;;;;;5056299;28;20025;-75
2022/09/02 04:03:51;;;;;;;8.50;1.95;;;;;;;;;;5054732;28;20036;-74
2022/09/02 04:06:18;;;;;;;3.35;1.83;;;;;;;;;;5055704;28;20037;-74
2022/09/02 04:08:44;;;;;;;4.35;2.00;;;;;;;;;;5056003;28;20028;-74
2022/09/02 04:11:13;;;;;;;4.43;2.75;;;;;;;;;;5055990;28;20398;-74
2022/09/02 04:13:39;;;;;;;3.60;2.30;;;;;;;;;;5056071;28;20031;-74
2022/09/02 04:16:09;;;;;;;3.00;2.00;;;;;;;;;;5055777;28;20463;-73
2022/09/02 04:18:34;;;;;;;3.20;2.03;;;;;;;;;;5055675;28;20470;-74
2022/09/02 04:21:00;;;;;;;4.13;2.30;;;;;;;;;;5055764;28;20112;-74
2022/09/02 04:23:27;;;;;;;5.10;2.10;;;;;;;;;;5055658;28;20059;-75
2022/09/02 04:25:52;;;;;;;4.57;2.03;;;;;;;;;;5055574;28;20021;-74
2022/09/02 04:28:18;;;;;;;4.05;2.10;;;;;;;;;;5055686;28;20040;-75
2022/09/02 04:30:43;;;;;;;9.37;2.67;;;;;;;;;;5055551;28;20094;-75
2022/09/02 04:33:09;;;;;;;5.43;2.40;;;;;;;;;;5054172;28;20254;-75
2022/09/02 04:35:39;;;;;;;5.45;2.28;;;;;;;;;;5055162;28;20452;-75
2022/09/02 04:38:05;;;;;;;5.03;2.17;;;;;;;;;;5055462;28;20051;-75
2022/09/02 04:40:30;;;;;;;2.83;1.90;;;;;;;;;;5054103;28;20029;-75
2022/09/02 04:42:55;;;;;;;3.83;2.30;;;;;;;;;;5055267;28;20031;-75
2022/09/02 04:45:21;;;;;;;4.75;2.95;;;;;;;;;;5054906;28;20254;-75
2022/09/02 04:47:46;;;;;;;7.95;2.65;;;;;;;;;;5053964;28;20493;-75
2022/09/02 04:50:11;;;;;;;5.20;2.20;;;;;;;;;;5055157;28;20104;-75
2022/09/02 04:52:36;;;;;;;5.93;2.55;;;;;;;;;;5055654;28;20262;-74
2022/09/02 04:55:02;;;;;;;3.50;1.93;;;;;;;;;;5055121;28;20036;-75
2022/09/02 04:57:27;;;;;;;4.85;2.20;;;;;;;;;;5053781;28;20266;-75
2022/09/02 04:59:53;;;;;;;6.30;2.20;;;;;;;;;;5053742;28;20025;-74
2022/09/02 05:02:19;;;;;;;2.78;1.92;;;;;;;;;;5054916;28;20260;-74
2022/09/02 05:04:45;;;;;;;8.23;2.40;;;;;;;;;;5053555;28;20482;-74
2022/09/02 05:07:10;;;;;;;5.13;2.15;;;;;;;;;;5054822;28;20491;-73
2022/09/02 05:09:36;;;;;;;3.33;2.22;;;;;;;;;;5053714;28;20104;-73
2022/09/02 05:12:03;;;;;;;4.28;1.65;;;;;;;;;;5054786;28;20025;-75
2022/09/02 05:14:28;;;;;;;2.55;1.90;;;;;;;;;;5054875;28;20108;-74
2022/09/02 05:16:53;;;;;;;3.88;2.10;;;;;;;;;;5054511;28;20107;-74
2022/09/02 05:19:22;;;;;;;7.88;2.00;;;;;;;;;;5054894;28;20470;-75
2022/09/02 05:21:49;;;;;;;5.03;2.20;;;;;;;;;;5054600;28;20028;-74
2022/09/02 05:24:15;;;;;;;6.20;2.30;;;;;;;;;;5054728;28;20054;-74
2022/09/02 05:26:43;;;;;;;9.13;2.10;;;;;;;;;;5054366;28;20104;-76
2022/09/02 05:29:10;;;;;;;3.83;2.20;;;;;;;;;;5053120;28;20021;-75
2022/09/02 05:31:36;;;;;;;4.95;2.17;;;;;;;;;;5053010;28;20025;-76
2022/09/02 05:34:01;;;;;;;3.90;2.20;;;;;;;;;;5054704;28;20029;-76
2022/09/02 05:36:26;;;;;;;5.57;2.50;;;;;;;;;;5054055;28;20021;-75
2022/09/02 05:38:51;;;;;;;8.68;2.40;;;;;;;;;;5054719;28;20257;-76
2022/09/02 05:41:22;;;;;;;3.93;2.10;;;;;;;;;;5054314;28;20033;-75
2022/09/02 05:43:49;;;;;;;3.75;2.20;;;;;;;;;;5054435;28;20269;-75
2022/09/02 05:46:16;;;;;;;5.57;2.05;;;;;;;;;;5054234;28;20024;-75
2022/09/02 05:51:27;;;;;;;4.47;2.45;;;;;;;;;;5054604;28;20090;-75
2022/09/02 05:53:53;;;;;;;3.00;2.13;;;;;;;;;;5054274;28;20474;-75
2022/09/02 05:56:19;;;;;;;3.25;1.90;;;;;;;;;;5053378;28;20021;-75
2022/09/02 05:58:45;;;;;;;10.43;2.38;;;;;;;;;;5053815;28;20071;-75
2022/09/02 06:01:12;;;;;;;3.10;2.10;;;;;;;;;;5054016;28;20094;-74
2022/09/02 06:03:38;;;;;;;3.13;2.20;;;;;;;;;;5053942;28;20028;-74
2022/09/02 06:06:03;;;;;;;5.40;2.20;;;;;;;;;;5053468;28;20033;-75
2022/09/02 06:08:29;;;;;;;2.83;2.25;;;;;;;;;;5052499;28;20398;-74
2022/09/02 06:10:55;;;;;;;4.38;2.10;;;;;;;;;;5053465;28;20501;-75
2022/09/02 06:13:21;;;;;;;4.10;2.55;;;;;;;;;;5053469;28;20115;-75
2022/09/02 06:15:47;;;;;;;6.18;2.33;;;;;;;;;;5052060;28;20025;-74
2022/09/02 06:18:12;;;;;;;6.18;2.35;;;;;;;;;;5052294;28;20021;-74
2022/09/02 06:20:45;;;;;;;5.20;2.20;;;;;;;;;;5053587;28;20032;-74
2022/09/02 06:23:12;;;;;;;4.10;2.58;;;;;;;;;;5053638;28;20033;-74
2022/09/02 06:25:38;;;;;;;4.95;2.30;;;;;;;;;;5053149;28;20070;-74
2022/09/02 06:28:04;;;;;;;3.90;2.40;;;;;;;;;;5053484;28;20075;-74
2022/09/02 06:30:30;;;;;;;3.78;2.20;;;;;;;;;;5054206;28;20462;-73
2022/09/02 06:32:56;;;;;;;4.40;1.83;;;;;;;;;;5051897;28;20122;-74
2022/09/02 06:35:21;;;;;;;5.10;1.70;;;;;;;;;;5052977;28;20044;-74
2022/09/02 06:37:47;;;;;;;3.47;1.80;;;;;;;;;;5051905;28;20020;-74
2022/09/02 06:40:13;;;;;;;3.70;1.70;;;;;;;;;;5051776;28;20141;-76
2022/09/02 06:42:39;;;;;;;3.08;1.88;;;;;;;;;;5051920;28;20029;-76
2022/09/02 06:45:04;;;;;;;4.13;2.03;;;;;;;;;;5053051;28;20536;-75
2022/09/02 06:47:33;;;;;;;3.75;2.25;;;;;;;;;;5053103;28;20390;-75
2022/09/02 06:49:59;;;;;;;3.95;1.70;;;;;;;;;;5051737;28;20483;-75
2022/09/02 06:52:24;;;;;;;3.58;1.80;;;;;;;;;;5052908;28;20028;-76
2022/09/02 06:54:50;;;;;;;3.15;2.05;;;;;;;;;;5052788;28;20025;-75
2022/09/02 06:57:15;;;;;;;6.78;1.90;;;;;;;;;;5052978;28;20028;-75
2022/09/02 06:59:41;;;;;;;5.30;1.83;;;;;;;;;;5052845;28;20074;-75
2022/09/02 07:02:06;;;;;;;3.53;1.70;;;;;;;;;;5052734;28;20036;-75
2022/09/02 07:07:15;;;;;;;7.03;1.65;;;;;;;;;;5053167;28;20071;-74
2022/09/02 07:09:40;;;;;;;2.23;1.70;;;;;;;;;;5056974;28;20056;-74
2022/09/02 07:12:07;;;;;;;3.80;1.77;;;;;;;;;;5056998;28;20258;-74
2022/09/02 07:14:40;;;;;;;2.55;1.50;;;;;;;;;;5057243;28;20052;-74
2022/09/02 07:17:07;;;;;;;5.45;1.85;;;;;;;;;;5055602;28;20548;-75
2022/09/02 07:19:32;;;;;;;5.65;1.85;;;;;;;;;;5056809;28;20056;-74
2022/09/02 07:21:58;;;;;;;3.83;1.45;;;;;;;;;;5056776;28;20059;-75
2022/09/02 07:24:23;;;;;;;2.25;1.65;;;;;;;;;;5055513;28;20017;-75
2022/09/02 07:26:49;;;;;;;3.67;1.70;;;;;;;;;;5056606;28;20017;-74
2022/09/02 07:29:15;;;;;;;3.90;1.40;;;;;;;;;;5056507;28;20033;-74
2022/09/02 07:31:42;;;;;;;2.85;1.45;;;;;;;;;;5055361;28;20385;-76
2022/09/02 07:34:08;;;;;;;2.45;1.60;;;;;;;;;;5055355;28;20393;-75
2022/09/02 07:36:35;;;;;;;3.38;1.48;;;;;;;;;;5055952;28;20044;-76
2022/09/02 07:39:01;;;;;;;4.80;1.40;;;;;;;;;;5055247;28;20028;-75
2022/09/02 07:41:27;;;;;;;3.63;1.75;;;;;;;;;;5056383;28;20386;-76
2022/09/02 07:43:52;;;;;;;4.65;1.52;;;;;;;;;;5056482;28;20450;-75
2022/09/02 07:46:18;;;;;;;2.55;1.58;;;;;;;;;;5056471;28;20361;-74
2022/09/02 07:48:43;;;;;;;2.78;1.40;;;;;;;;;;5056306;28;20366;-75
2022/09/02 07:51:09;;;;;;;2.38;1.30;;;;;;;;;;5056355;28;20021;-75
2022/09/02 07:53:35;;;;;;;2.97;1.63;;;;;;;;;;5056163;28;20075;-75
2022/09/02 07:56:01;;;;;;;2.05;1.10;;;;;;;;;;5056105;28;20029;-76
2022/09/02 07:58:27;;;;;;;2.35;1.27;;;;;;;;;;5056069;28;20040;-75
2022/09/02 08:00:55;;;;;;;2.17;1.20;;;;;;;;;;5056294;28;20023;-72
2022/09/02 08:03:21;;;;;;;2.92;1.40;;;;;;;;;;5054540;28;20021;-76
2022/09/02 08:05:47;;;;;;;5.05;1.10;;;;;;;;;;5055692;28;20028;-76
2022/09/02 08:08:14;;;;;;;3.00;1.10;;;;;;;;;;5056215;28;20040;-75
2022/09/02 08:10:40;;;;;;;3.40;1.10;;;;;;;;;;5056373;28;20151;-76
2022/09/02 08:13:07;;;;;;;2.70;0.90;;;;;;;;;;5054660;28;20031;-75
2022/09/02 08:15:34;;;;;;;1.92;0.77;;;;;;;;;;5056048;28;20036;-74
2022/09/02 08:18:01;;;;;;;1.95;1.00;;;;;;;;;;5055932;28;20028;-75
2022/09/02 08:20:29;;;;;;;5.47;0.88;;;;;;;;;;5055226;28;20044;-76
2022/09/02 08:22:54;;;;;;;2.63;0.88;;;;;;;;;;5056319;28;20025;-78
2022/09/02 08:25:19;;;;;;;1.60;1.00;;;;;;;;;;5058313;28;20032;-79
2022/09/02 08:27:45;;;;;;;0.77;0.77;;;;;;;;;;5057212;28;20060;-78
2022/09/02 08:30:11;;;;;;;1.20;0.90;;;;;;;;;;5056519;28;20262;-76
2022/09/02 08:32:37;;;;;;;1.75;0.88;;;;;;;;;;5055711;28;20112;-78
2022/09/02 08:35:04;;;;;;;2.00;0.80;;;;;;;;;;5055902;28;20474;-77
2022/09/02 08:37:31;;;;;;;1.92;0.80;;;;;;;;;;5054789;28;20039;-77
2022/09/02 08:39:57;;;;;;;1.55;0.60;;;;;;;;;;5054514;28;20127;-79
2022/09/02 08:42:30;;;;;;;1.60;0.70;;;;;;;;;;5056275;28;20021;-74
2022/09/02 08:45:03;;;;;;;1.07;0.73;;;;;;;;;;5054560;28;20020;-75
2022/09/02 08:47:33;;;;;;;1.58;0.80;;;;;;;;;;5055536;28;20033;-76
2022/09/02 08:50:05;;;;;;;0.82;0.77;;;;;;;;;;5054119;28;20394;-76
2022/09/02 08:52:38;;;;;;;2.17;0.80;;;;;;;;;;5055635;28;20028;-77
2022/09/02 08:55:06;;;;;;;1.50;0.60;;;;;;;;;;5055151;28;20029;-76
2022/09/02 08:57:32;;;;;;;2.17;0.80;;;;;;;;;;5056080;28;20047;-77
2022/09/02 09:00:00;;;;;;;1.48;0.45;;;;;;;;;;5055214;28;20021;-78
2022/09/02 09:02:55;;;;;;;2.08;0.60;;;;;;;;;;5055536;28;20080;-77
2022/09/02 09:05:54;;;;;;;0.80;0.55;;;;;;;;;;5054675;28;20112;-78
2022/09/02 09:08:59;;;;;;;0.60;0.50;;;;;;;;;;5054001;28;20021;-77
2022/09/02 09:11:44;;;;;;;2.90;0.70;;;;;;;;;;5055728;28;20170;-78
2022/09/02 09:14:19;;;;;;;1.95;0.50;;;;;;;;;;5055544;28;20033;-77
2022/09/02 09:16:53;;;;;;;2.15;0.60;;;;;;;;;;5054619;28;20109;-77
2022/09/02 09:19:46;;;;;;;0.70;0.50;;;;;;;;;;5053426;28;20100;-77
2022/09/02 09:22:14;;;;;;;0.70;0.57;;;;;;;;;;5054863;28;20025;-77
2022/09/02 09:24:43;;;;;;;0.85;0.50;;;;;;;;;;5055364;28;20071;-77
2022/09/02 09:27:12;;;;;;;5.25;0.60;;;;;;;;;;5055594;28;20439;-77
2022/09/02 09:29:37;;;;;;;0.70;0.47;;;;;;;;;;5054999;28;20050;-77
2022/09/02 09:32:12;;;;;;;0.60;0.60;;;;;;;;;;5053432;28;20047;-77
2022/09/02 09:35:01;;;;;;;1.00;0.60;;;;;;;;;;5054650;28;20025;-76
2022/09/02 09:37:33;;;;;;;0.65;0.57;;;;;;;;;;5053281;28;20031;-76
2022/09/02 09:39:59;;;;;;;1.00;0.60;;;;;;;;;;5054507;28;20033;-76
2022/09/02 09:42:36;;;;;;;1.15;0.60;;;;;;;;;;5054732;28;20029;-77
2022/09/02 09:45:32;;;;;;;1.20;0.70;;;;;;;;;;5055167;28;20021;-77
2022/09/02 09:48:21;;;;;;;0.82;0.60;;;;;;;;;;5054862;28;20021;-77
2022/09/02 09:50:56;;;;;;;1.38;0.57;;;;;;;;;;5053402;28;20037;-76
2022/09/02 09:53:29;;;;;;;1.65;0.57;;;;;;;;;;5054220;28;20020;-76
2022/09/02 09:56:05;;;;;;;1.90;0.47;;;;;;;;;;5054213;28;20028;-77
2022/09/02 09:58:37;;;;;;;0.77;0.55;;;;;;;;;;5055057;28;20113;-78
2022/09/02 10:01:18;;;;;;;0.90;0.63;;;;;;;;;;5054969;28;20448;-77
2022/09/02 10:03:52;;;;;;;1.13;0.50;;;;;;;;;;5052894;28;20021;-77
2022/09/02 10:06:35;;;;;;;1.65;0.63;;;;;;;;;;5053937;28;20033;-77
2022/09/02 10:09:05;;;;;;;0.60;0.60;;;;;;;;;;5054273;28;20032;-76
2022/09/02 10:11:34;;;;;;;1.42;0.63;;;;;;;;;;5054202;28;20048;-77
2022/09/02 10:14:10;;;;;;;0.70;0.57;;;;;;;;;;5055117;28;20035;-77
2022/09/02 10:16:47;;;;;;;0.65;0.50;;;;;;;;;;5054256;28;20029;-76
2022/09/02 10:19:25;;;;;;;0.73;0.50;;;;;;;;;;5054546;28;20028;-77
2022/09/02 10:22:17;;;;;;;1.27;0.65;;;;;;;;;;5052542;28;20494;-78
2022/09/02 10:24:57;;;;;;;3.80;0.52;;;;;;;;;;5053637;28;20039;-75
2022/09/02 10:27:41;;;;;;;2.83;0.40;;;;;;;;;;5053607;28;20025;-76
2022/09/02 10:30:20;;;;;;;3.70;0.70;;;;;;;;;;5053658;28;20017;-77
2022/09/02 10:33:15;;;;;;;1.02;0.60;;;;;;;;;;5053842;28;20040;-77
2022/09/02 10:35:53;;;;;;;1.27;0.60;;;;;;;;;;5053832;28;20033;-77
2022/09/02 10:38:33;;;;;;;1.27;0.70;;;;;;;;;;5052906;28;20100;-77
2022/09/02 10:41:21;;;;;;;0.50;0.50;;;;;;;;;;5053829;28;20490;-77
2022/09/02 10:44:08;;;;;;;1.33;0.63;;;;;;;;;;5053785;28;20029;-77
2022/09/02 10:46:53;;;;;;;2.60;0.70;;;;;;;;;;5054280;28;20025;-78
2022/09/02 10:49:43;;;;;;;1.30;0.60;;;;;;;;;;5054354;28;20474;-77
2022/09/02 10:52:37;;;;;;;1.10;0.60;;;;;;;;;;5053453;28;20021;-77
2022/09/02 10:55:10;;;;;;;1.10;0.70;;;;;;;;;;5054253;28;20076;-76
2022/09/02 10:57:57;;;;;;;0.68;0.60;;;;;;;;;;5053273;28;20025;-76
2022/09/02 11:00:23;;;;;;;0.85;0.60;;;;;;;;;;5053494;28;20540;-76
2022/09/02 11:03:13;;;;;;;3.97;0.60;;;;;;;;;;5053329;28;20103;-78
2022/09/02 11:05:50;;;;;;;0.75;0.60;;;;;;;;;;5052919;28;20029;-76
2022/09/02 11:08:44;;;;;;;5.45;0.73;;;;;;;;;;5053122;28;20097;-77
2022/09/02 11:11:20;;;;;;;1.13;0.70;;;;;;;;;;5053094;28;20025;-77
2022/09/02 11:13:51;;;;;;;1.85;0.70;;;;;;;;;;5053687;28;20143;-77
2022/09/02 11:16:25;;;;;;;2.60;0.63;;;;;;;;;;5053789;28;20063;-78
2022/09/02 11:19:00;;;;;;;;;;;;;;;;;;5052617;28;20029;-77
2022/09/02 11:21:46;;;;;;;3.22;0.60;;;;;;;;;;5052318;28;20079;-78
2022/09/02 11:24:20;;;;;;;0.50;0.50;;;;;;;;;;5053372;28;20032;-78
2022/09/02 11:26:59;;;;;;;1.63;0.55;;;;;;;;;;5053278;28;20075;-76
2022/09/02 11:29:46;;;;;;;1.48;0.65;;;;;;;;;;5053341;28;20048;-77
2022/09/02 11:32:20;;;;;;;1.98;0.60;;;;;;;;;;5053397;28;20108;-77
2022/09/02 11:34:48;;;;;;;0.70;0.50;;;;;;;;;;5053885;28;20079;-77
2022/09/02 11:37:23;;;;;;;3.30;0.70;;;;;;;;;;5053571;28;20021;-77
2022/09/02 11:39:56;;;;;;;1.55;0.63;;;;;;;;;;5052891;28;20068;-77
2022/09/02 11:43:00;;;;;;;0.63;0.60;;;;;;;;;;5053244;28;20024;-77
2022/09/02 11:45:38;;;;;;;0.93;0.70;;;;;;;;;;5051507;28;20393;-76
2022/09/02 11:48:41;;;;;;;1.33;0.70;;;;;;;;;;5052740;28;20483;-77
2022/09/02 11:51:42;;;;;;;5.57;0.82;;;;;;;;;;5052831;28;20021;-76
2022/09/02 11:54:10;;;;;;;0.75;0.60;;;;;;;;;;5052471;28;20021;-76
2022/09/02 11:56:39;;;;;;;1.60;0.70;;;;;;;;;;5056375;28;20029;-77
2022/09/02 11:59:06;;;;;;;0.93;0.43;;;;;;;;;;5054864;28;20132;-78
2022/09/02 12:01:48;;;;;;;2.97;0.60;;;;;;;;;;5056381;28;20117;-77
2022/09/02 12:04:13;;;;;;;0.60;0.57;;;;;;;;;;5055540;28;20036;-76
2022/09/02 12:07:07;;;;;;;0.77;0.40;;;;;;;;;;5056529;28;20033;-76
2022/09/02 12:09:49;;;;;;;1.50;0.50;;;;;;;;;;5056263;28;20025;-77
2022/09/02 12:12:37;;;;;;;2.03;0.60;;;;;;;;;;5056246;28;20025;-77
2022/09/02 12:15:05;;;;;;;5.95;0.60;;;;;;;;;;5056151;28;20448;-77
2022/09/02 12:18:04;;;;;;;4.68;0.77;;;;;;;;;;5056414;28;20025;-77
2022/09/02 12:20:40;;;;;;;1.50;0.82;;;;;;;;;;5056210;28;20017;-76
2022/09/02 12:23:07;;;;;;;3.58;0.60;;;;;;;;;;5056741;28;20456;-78
2022/09/02 12:25:39;;;;;;;0.52;0.50;;;;;;;;;;5057512;28;20092;-77
2022/09/02 12:28:13;;;;;;;1.63;0.90;;;;;;;;;;5056934;28;20104;-78
2022/09/02 12:31:07;;;;;;;3.28;0.57;;;;;;;;;;5055670;28;20031;-76
2022/09/02 12:33:38;;;;;;;0.50;0.50;;;;;;;;;;5054616;28;20070;-76
2022/09/02 12:36:05;;;;;;;1.77;0.68;;;;;;;;;;5055740;28;20032;-77
2022/09/02 12:38:38;;;;;;;0.70;0.45;;;;;;;;;;5055385;28;20478;-77
2022/09/02 12:41:03;;;;;;;3.17;0.70;;;;;;;;;;5055464;28;20474;-77
2022/09/02 12:43:43;;;;;;;0.90;0.60;;;;;;;;;;5057263;28;20086;-77
2022/09/02 12:46:18;;;;;;;1.00;0.68;;;;;;;;;;5056126;28;20155;-77
2022/09/02 12:48:57;;;;;;;0.70;0.55;;;;;;;;;;5055658;28;20382;-77
2022/09/02 12:51:51;;;;;;;1.25;0.70;;;;;;;;;;5055147;28;20040;-77
2022/09/02 12:54:18;;;;;;;3.38;0.80;;;;;;;;;;5054348;28;20107;-78
2022/09/02 12:56:50;;;;;;;0.82;0.52;;;;;;;;;;5056171;28;20040;-77
2022/09/02 12:59:37;;;;;;;3.47;0.68;;;;;;;;;;5056352;28;20028;-78
2022/09/02 13:02:44;;;;;;;2.60;0.60;;;;;;;;;;5054246;28;20548;-77
2022/09/02 13:05:22;;;;;;;4.43;0.70;;;;;;;;;;5055255;28;20040;-76
2022/09/02 13:08:16;;;;;;;1.13;0.50;;;;;;;;;;5055723;28;20035;-77
2022/09/02 13:11:06;;;;;;;0.93;0.60;;;;;;;;;;5055974;28;20025;-77
2022/09/02 13:13:56;;;;;;;1.60;0.77;;;;;;;;;;5055495;28;20025;-77
2022/09/02 13:16:35;;;;;;;1.85;0.65;;;;;;;;;;5055191;28;20115;-78
2022/09/02 13:19:24;;;;;;;0.90;0.55;;;;;;;;;;5055253;28;20089;-77
2022/09/02 13:22:19;;;;;;;1.00;0.50;;;;;;;;;;5056184;28;20514;-75
2022/09/02 13:25:04;;;;;;;3.33;0.70;;;;;;;;;;5057919;28;20102;-74
2022/09/02 13:27:50;;;;;;;1.23;0.65;;;;;;;;;;5059700;28;20470;-74
2022/09/02 13:30:20;;;;;;;0.73;0.55;;;;;;;;;;5056126;28;20035;-74
2022/09/02 13:32:55;;;;;;;0.88;0.63;;;;;;;;;;5054360;28;20056;-74
2022/09/02 13:35:25;;;;;;;1.92;0.73;;;;;;;;;;5057622;28;20021;-75
2022/09/02 13:37:58;;;;;;;3.75;0.80;;;;;;;;;;5057205;28;20053;-74
2022/09/02 13:40:33;;;;;;;1.50;0.80;;;;;;;;;;5056288;28;20024;-78
2022/09/02 13:43:00;;;;;;;3.30;0.80;;;;;;;;;;5056237;28;20028;-74
2022/09/02 13:45:28;;;;;;;2.58;0.80;;;;;;;;;;5054253;28;20069;-74
2022/09/02 13:47:57;;;;;;;6.70;0.70;;;;;;;;;;5054383;28;20068;-74
2022/09/02 13:50:25;;;;;;;2.75;0.80;;;;;;;;;;5054267;28;20032;-74
2022/09/02 13:52:56;;;;;;;1.98;0.80;;;;;;;;;;5053940;28;20372;-74
2022/09/02 13:55:22;;;;;;;1.65;1.15;;;;;;;;;;5053703;28;20116;-74
2022/09/02 13:57:55;;;;;;;5.35;0.90;;;;;;;;;;5053114;28;20082;-74
2022/09/02 14:00:32;;;;;;;0.53;0.53;;;;;;;;;;5054058;28;20475;-73
2022/09/02 14:03:00;;;;;;;2.35;0.80;;;;;;;;;;5053817;28;20276;-74
2022/09/02 14:05:27;;;;;;;4.00;0.90;;;;;;;;;;5053637;28;20111;-73
2022/09/02 14:07:56;;;;;;;2.25;0.80;;;;;;;;;;5054340;28;20024;-75
2022/09/02 14:10:25;;;;;;;4.20;1.05;;;;;;;;;;5052633;28;20147;-75
2022/09/02 14:12:51;;;;;;;0.95;0.80;;;;;;;;;;5053603;28;20020;-73
2022/09/02 14:15:26;;;;;;;0.85;0.70;;;;;;;;;;5053384;28;20032;-74
2022/09/02 14:18:14;;;;;;;0.73;0.73;;;;;;;;;;5053150;28;20544;-76
2022/09/02 14:21:00;;;;;;;1.55;0.80;;;;;;;;;;5052444;28;20021;-77
2022/09/02 14:23:28;;;;;;;1.23;0.60;;;;;;;;;;5052938;28;20029;-78
2022/09/02 14:25:58;;;;;;;1.00;0.73;;;;;;;;;;5052301;28;20017;-77
2022/09/02 14:28:27;;;;;;;1.35;0.88;;;;;;;;;;5052155;28;20108;-77
2022/09/02 14:30:58;;;;;;;2.78;0.70;;;;;;;;;;5053559;28;20409;-77
2022/09/02 14:33:39;;;;;;;1.75;0.80;;;;;;;;;;5053590;28;20382;-77
2022/09/02 14:36:28;;;;;;;2.38;0.75;;;;;;;;;;5051902;28;20020;-76
2022/09/02 14:38:56;;;;;;;0.65;0.65;;;;;;;;;;5053439;28;20033;-77
2022/09/02 14:41:28;;;;;;;1.85;0.90;;;;;;;;;;5052032;28;20107;-76
2022/09/02 14:43:56;;;;;;;1.10;0.70;;;;;;;;;;5053832;28;20029;-78
2022/09/02 14:46:29;;;;;;;2.25;0.75;;;;;;;;;;5053342;28;20032;-77
2022/09/02 14:49:04;;;;;;;1.27;0.75;;;;;;;;;;5053611;28;20526;-77
2022/09/02 14:51:44;;;;;;;0.82;0.80;;;;;;;;;;5051962;28;20021;-78
2022/09/02 14:54:10;;;;;;;2.17;0.82;;;;;;;;;;5054924;28;20111;-77
2022/09/02 14:56:43;;;;;;;0.70;0.70;;;;;;;;;;5052042;28;20072;-77
2022/09/02 14:59:08;;;;;;;4.88;0.77;;;;;;;;;;5052920;28;20017;-77
2022/09/02 15:01:45;;;;;;;2.38;0.70;;;;;;;;;;5052737;28;20043;-77
2022/09/02 15:04:11;;;;;;;2.33;1.00;;;;;;;;;;5053636;28;20108;-77
2022/09/02 15:06:36;;;;;;;2.75;0.90;;;;;;;;;;5052819;28;20485;-77
2022/09/02 15:09:01;;;;;;;3.17;0.73;;;;;;;;;;5053190;28;20098;-78
2022/09/02 15:11:26;;;;;;;1.65;0.90;;;;;;;;;;5052952;28;20261;-77